Time;durP1;ratioP1;P1;durP2;ratioP2;P2;SDS_P1;SDS_P2;PMS_P1;PMS_P2;Temp;Humidity;BMP_temperature;BMP_pressure;BME280_temperature;BME280_humidity;BME280_pressure;Samples;Min_cycle;Max_cycle;Signal;HPM_P1;HPM_P2
2022/06/20 00:02:19;;;;;;;1.23;1.13;;;23.90;57.90;;;;;;5072701;28;20092;-67
2022/06/20 00:04:47;;;;;;;1.52;1.30;;;23.90;58.10;;;;;;5054496;28;20354;-67
2022/06/20 00:07:13;;;;;;;2.25;1.85;;;23.80;58.10;;;;;;5072683;28;20028;-67
2022/06/20 00:09:39;;;;;;;1.92;1.60;;;23.80;58.20;;;;;;5072252;28;20064;-67
2022/06/20 00:12:05;;;;;;;2.28;1.48;;;23.80;58.50;;;;;;5072843;28;20067;-67
2022/06/20 00:14:30;;;;;;;2.00;1.23;;;23.80;58.70;;;;;;5072415;28;20569;-67
2022/06/20 00:16:56;;;;;;;1.20;1.10;;;23.80;58.70;;;;;;5071803;28;20052;-67
2022/06/20 00:19:22;;;;;;;2.00;1.27;;;23.80;59.30;;;;;;5054408;28;20032;-67
2022/06/20 00:21:47;;;;;;;2.15;1.52;;;23.80;58.70;;;;;;5071950;28;20056;-66
2022/06/20 00:24:13;;;;;;;3.00;1.70;;;23.80;59.20;;;;;;5072489;28;20035;-67
2022/06/20 00:26:39;;;;;;;2.13;1.40;;;23.80;59.40;;;;;;5071893;28;20024;-66
2022/06/20 00:29:07;;;;;;;2.45;1.30;;;23.80;60.40;;;;;;5072453;28;20099;-66
2022/06/20 00:31:34;;;;;;;1.63;1.33;;;23.80;60.20;;;;;;5072299;28;20025;-67
2022/06/20 00:33:59;;;;;;;1.75;1.40;;;23.70;60.40;;;;;;5071841;28;20123;-66
2022/06/20 00:36:25;;;;;;;2.60;1.35;;;23.70;60.90;;;;;;5071952;28;20107;-67
2022/06/20 00:38:54;;;;;;;1.40;1.30;;;23.60;61.30;;;;;;5071819;28;20024;-65
2022/06/20 00:41:24;;;;;;;1.27;1.15;;;23.60;61.90;;;;;;5071482;28;20028;-67
2022/06/20 00:43:52;;;;;;;1.25;1.15;;;23.60;61.90;;;;;;5071760;28;20029;-66
2022/06/20 00:46:29;;;;;;;1.80;1.70;;;23.60;62.10;;;;;;5072214;28;20055;-67
2022/06/20 00:49:19;;;;;;;1.83;1.40;;;23.50;62.10;;;;;;5071747;28;20460;-67
2022/06/20 00:52:00;;;;;;;1.98;1.55;;;23.50;62.30;;;;;;5079972;28;20385;-68
2022/06/20 00:55:00;;;;;;;1.67;1.40;;;23.50;62.50;;;;;;5092144;28;20125;-67
2022/06/20 00:57:37;;;;;;;1.40;1.30;;;23.50;62.60;;;;;;5091430;28;20124;-67
2022/06/20 01:00:15;;;;;;;2.10;1.50;;;23.50;62.80;;;;;;5092063;28;20264;-67
2022/06/20 01:02:48;;;;;;;1.67;1.50;;;23.50;63.00;;;;;;5091768;28;20051;-67
2022/06/20 01:05:27;;;;;;;1.58;1.48;;;23.40;63.60;;;;;;5092175;28;20020;-66
2022/06/20 01:07:55;;;;;;;1.65;1.35;;;23.40;63.80;;;;;;5091685;28;20402;-67
2022/06/20 01:10:23;;;;;;;1.77;1.48;;;23.40;64.80;;;;;;5092132;28;20079;-67
2022/06/20 01:12:58;;;;;;;1.52;1.40;;;23.30;64.40;;;;;;5091503;28;20032;-68
2022/06/20 01:15:31;;;;;;;1.40;1.13;;;23.30;64.80;;;;;;5092221;28;20049;-66
2022/06/20 01:17:57;;;;;;;1.48;1.38;;;23.30;65.00;;;;;;5091604;28;20514;-66
2022/06/20 01:20:26;;;;;;;2.30;1.63;;;23.20;65.20;;;;;;5092149;28;20051;-66
2022/06/20 01:23:04;;;;;;;2.38;1.67;;;23.20;65.40;;;;;;5091444;28;20032;-67
2022/06/20 01:26:23;;;;;;;2.40;1.67;;;23.20;65.80;;;;;;5091855;28;20399;-67
2022/06/20 01:28:52;;;;;;;2.40;1.63;;;23.20;66.10;;;;;;4989620;28;20073;-68
2022/06/20 01:31:20;;;;;;;1.50;1.40;;;23.10;66.30;;;;;;4990076;28;20122;-67
2022/06/20 01:33:48;;;;;;;2.30;1.38;;;23.10;66.60;;;;;;5040864;28;20074;-67
2022/06/20 01:39:00;;;;;;;1.80;1.40;;;23.00;67.40;;;;;;5091493;28;20399;-67
2022/06/20 01:44:12;;;;;;;1.85;1.55;;;23.00;67.30;;;;;;5091592;28;20468;-67
2022/06/20 01:46:38;;;;;;;2.25;1.23;;;22.90;67.60;;;;;;5091830;28;20052;-67
2022/06/20 01:49:24;;;;;;;2.17;1.52;;;22.90;67.80;;;;;;5091364;28;20093;-67
2022/06/20 01:51:59;;;;;;;2.22;1.50;;;22.90;68.00;;;;;;5073764;28;20028;-67
2022/06/20 01:54:30;;;;;;;1.75;1.42;;;22.80;68.30;;;;;;5081334;28;20392;-66
2022/06/20 01:56:56;;;;;;;1.50;1.40;;;22.80;68.80;;;;;;5074841;28;20096;-67
2022/06/20 01:59:34;;;;;;;1.75;1.50;;;22.70;68.90;;;;;;5074852;28;20039;-67
2022/06/20 02:02:00;;;;;;;3.22;1.80;;;22.70;69.10;;;;;;5074699;28;20036;-67
2022/06/20 02:04:30;;;;;;;1.67;1.40;;;22.70;69.00;;;;;;5074457;28;20028;-67
2022/06/20 02:06:56;;;;;;;1.73;1.63;;;22.70;69.10;;;;;;5074389;28;20059;-66
2022/06/20 02:09:22;;;;;;;3.22;1.50;;;22.70;69.70;;;;;;5074600;28;20028;-67
2022/06/20 02:11:48;;;;;;;1.45;1.35;;;22.60;70.00;;;;;;5073972;28;20036;-67
2022/06/20 02:14:31;;;;;;;1.88;1.50;;;22.60;70.30;;;;;;5074268;28;20024;-67
2022/06/20 02:17:04;;;;;;;1.83;1.60;;;22.50;70.40;;;;;;5074197;28;20032;-67
2022/06/20 02:19:38;;;;;;;1.83;1.58;;;22.50;70.90;;;;;;5074699;28;20028;-67
2022/06/20 02:22:06;;;;;;;2.53;1.70;;;22.50;71.10;;;;;;5074149;28;20055;-67
2022/06/20 02:24:36;;;;;;;2.15;1.70;;;22.50;71.30;;;;;;5074414;28;20024;-67
2022/06/20 02:27:04;;;;;;;1.60;1.48;;;22.40;71.60;;;;;;5074069;28;20043;-67
2022/06/20 02:29:31;;;;;;;1.50;1.40;;;22.40;71.50;;;;;;5074472;28;20024;-68
2022/06/20 02:32:02;;;;;;;1.75;1.30;;;22.40;71.50;;;;;;5073733;28;20401;-67
2022/06/20 02:34:28;;;;;;;;;;;22.40;71.60;;;;;;5075062;28;20029;-67
2022/06/20 02:36:57;;;;;;;2.53;1.60;;;22.50;72.00;;;;;;5074259;28;19910;-67
2022/06/20 02:39:25;;;;;;;1.83;1.50;;;22.50;72.10;;;;;;5074357;28;20529;-67
2022/06/20 02:41:54;;;;;;;2.17;1.50;;;22.50;72.30;;;;;;5074089;28;20036;-67
2022/06/20 02:44:21;;;;;;;1.65;1.52;;;22.50;72.20;;;;;;5074204;28;20029;-67
2022/06/20 02:46:49;;;;;;;3.50;1.60;;;22.50;72.10;;;;;;5073869;28;20045;-67
2022/06/20 02:49:18;;;;;;;2.95;1.88;;;22.50;72.40;;;;;;5073757;28;20506;-66
2022/06/20 02:51:50;;;;;;;3.08;1.67;;;22.40;72.20;;;;;;5073833;28;20029;-67
2022/06/20 02:54:18;;;;;;;2.78;1.75;;;22.40;72.50;;;;;;5092587;28;20028;-67
2022/06/20 02:56:51;;;;;;;3.08;1.98;;;22.40;72.30;;;;;;5094237;28;20020;-66
2022/06/20 02:59:37;;;;;;;2.00;1.80;;;22.40;72.60;;;;;;5094287;28;20149;-68
2022/06/20 03:02:08;;;;;;;1.77;1.40;;;22.40;72.60;;;;;;5093858;28;20088;-67
2022/06/20 03:04:36;;;;;;;2.22;1.88;;;22.40;72.80;;;;;;5093284;28;20024;-68
2022/06/20 03:07:07;;;;;;;1.98;1.77;;;22.30;73.30;;;;;;5093303;28;20541;-67
2022/06/20 03:09:37;;;;;;;2.83;1.77;;;22.20;73.60;;;;;;5093820;28;20047;-67
2022/06/20 03:12:05;;;;;;;3.60;1.60;;;22.20;74.00;;;;;;5093782;28;20040;-67
2022/06/20 03:14:46;;;;;;;3.92;1.75;;;22.20;74.20;;;;;;5094097;28;20028;-67
2022/06/20 03:17:14;;;;;;;2.55;1.83;;;22.20;74.30;;;;;;5093430;28;20032;-67
2022/06/20 03:19:44;;;;;;;3.22;1.80;;;22.10;74.50;;;;;;5094160;28;20032;-67
2022/06/20 03:22:15;;;;;;;2.77;1.97;;;22.10;74.90;;;;;;5093688;28;20166;-67
2022/06/20 03:24:42;;;;;;;2.20;2.00;;;22.10;74.90;;;;;;5093942;28;20259;-67
2022/06/20 03:27:16;;;;;;;2.33;1.90;;;22.00;74.90;;;;;;5093740;28;20039;-67
2022/06/20 03:29:44;;;;;;;2.58;1.92;;;22.00;74.70;;;;;;5093972;28;20046;-67
2022/06/20 03:32:10;;;;;;;2.55;1.52;;;22.00;75.00;;;;;;5093365;28;20263;-67
2022/06/20 03:34:36;;;;;;;3.85;1.77;;;22.00;75.20;;;;;;5093831;28;20325;-67
2022/06/20 03:37:02;;;;;;;2.92;1.90;;;22.00;75.60;;;;;;5093333;28;20036;-67
2022/06/20 03:39:29;;;;;;;1.85;1.65;;;22.00;75.70;;;;;;5093542;28;20075;-67
2022/06/20 03:41:56;;;;;;;1.60;1.50;;;22.00;75.60;;;;;;5093124;28;20085;-67
2022/06/20 03:44:36;;;;;;;2.03;1.50;;;22.00;75.30;;;;;;5093744;28;20048;-67
2022/06/20 03:47:18;;;;;;;2.28;2.08;;;22.00;76.00;;;;;;5092734;28;20059;-67
2022/06/20 03:49:58;;;;;;;2.00;1.60;;;22.00;75.30;;;;;;5093418;28;20380;-66
2022/06/20 03:52:38;;;;;;;2.63;1.85;;;21.90;75.60;;;;;;5093381;28;20042;-67
2022/06/20 03:55:22;;;;;;;4.05;1.67;;;21.90;75.70;;;;;;5092637;28;20473;-66
2022/06/20 03:57:54;;;;;;;2.25;1.70;;;21.90;76.00;;;;;;5078932;28;20047;-67
2022/06/20 04:00:28;;;;;;;2.58;2.00;;;21.90;76.00;;;;;;5073383;28;20098;-67
2022/06/20 04:03:09;;;;;;;1.60;1.50;;;21.90;76.10;;;;;;5072491;28;20039;-67
2022/06/20 04:05:56;;;;;;;3.70;1.83;;;21.90;76.70;;;;;;5072945;28;20473;-68
2022/06/20 04:10:57;;;;;;;1.98;1.67;;;21.90;76.10;;;;;;5073158;28;20039;-68
2022/06/20 04:11:15;;;;;;;2.70;1.80;;;21.90;76.70;;;;;;5072187;28;20377;-67
2022/06/20 04:14:05;;;;;;;1.95;1.73;;;22.00;76.50;;;;;;5072356;28;20155;-66
2022/06/20 04:16:43;;;;;;;2.17;1.88;;;22.00;76.10;;;;;;5071721;28;20045;-67
2022/06/20 04:19:18;;;;;;;2.28;1.88;;;22.10;75.90;;;;;;5072412;28;20074;-68
2022/06/20 04:21:52;;;;;;;2.45;1.75;;;22.20;75.90;;;;;;5072713;28;20025;-68
2022/06/20 04:24:24;;;;;;;2.22;2.03;;;22.20;75.90;;;;;;5072329;28;20422;-68
2022/06/20 04:26:53;;;;;;;2.10;1.80;;;22.30;75.50;;;;;;5072715;28;20028;-66
2022/06/20 04:29:27;;;;;;;2.42;1.55;;;22.30;75.30;;;;;;5072106;28;20021;-67
2022/06/20 04:31:58;;;;;;;2.72;1.85;;;22.30;75.50;;;;;;5072457;28;20431;-67
2022/06/20 04:34:46;;;;;;;2.45;1.80;;;22.40;75.10;;;;;;5091133;28;20350;-67
2022/06/20 04:37:27;;;;;;;2.55;1.75;;;22.50;74.80;;;;;;5087781;28;20080;-67
2022/06/20 04:40:02;;;;;;;2.40;1.85;;;22.60;74.60;;;;;;5085644;28;20032;-67
2022/06/20 04:42:48;;;;;;;2.05;1.85;;;22.60;73.80;;;;;;5090582;28;20024;-66
2022/06/20 04:45:39;;;;;;;2.00;1.80;;;22.70;73.90;;;;;;5090915;28;20077;-67
2022/06/20 04:48:11;;;;;;;2.50;2.05;;;22.80;74.20;;;;;;5090613;28;20073;-67
2022/06/20 04:50:39;;;;;;;2.00;1.77;;;22.90;74.10;;;;;;5092348;28;20031;-66
2022/06/20 04:53:09;;;;;;;2.40;1.83;;;23.00;74.20;;;;;;5090962;28;20028;-66
2022/06/20 04:55:38;;;;;;;2.63;2.10;;;23.10;73.90;;;;;;5092075;28;20484;-67
2022/06/20 04:58:08;;;;;;;1.80;1.70;;;23.20;73.50;;;;;;5091675;28;20027;-67
2022/06/20 05:00:43;;;;;;;2.17;1.98;;;23.30;72.70;;;;;;5092274;28;20177;-67
2022/06/20 05:03:14;;;;;;;2.22;1.98;;;23.50;72.40;;;;;;5091980;28;20028;-67
2022/06/20 05:05:43;;;;;;;1.60;1.50;;;23.60;71.20;;;;;;5092293;28;20024;-67
2022/06/20 05:08:15;;;;;;;2.38;2.03;;;23.80;70.70;;;;;;5091977;28;20086;-67
2022/06/20 05:10:50;;;;;;;1.95;1.70;;;23.90;70.30;;;;;;5092324;28;20367;-66
2022/06/20 05:13:51;;;;;;;1.80;1.70;;;24.20;68.90;;;;;;5091019;28;20024;-66
2022/06/20 05:16:25;;;;;;;2.10;1.90;;;24.30;68.10;;;;;;5090645;28;20028;-67
2022/06/20 05:19:07;;;;;;;1.98;1.75;;;24.50;67.70;;;;;;5091754;28;20107;-66
2022/06/20 05:21:39;;;;;;;2.42;1.95;;;24.70;67.10;;;;;;5091597;28;20793;-61
2022/06/20 05:24:17;;;;;;;4.20;2.30;;;24.90;66.10;;;;;;5091713;28;20024;-61
2022/06/20 05:26:46;;;;;;;3.95;1.95;;;25.10;65.40;;;;;;5093116;28;20039;-62
2022/06/20 05:29:20;;;;;;;1.98;1.77;;;25.20;64.70;;;;;;5095678;28;20040;-62
2022/06/20 05:31:49;;;;;;;4.18;2.10;;;25.40;63.70;;;;;;5096477;28;20030;-62
2022/06/20 05:34:30;;;;;;;2.15;1.92;;;25.60;63.90;;;;;;5095883;28;20047;-62
2022/06/20 05:37:15;;;;;;;6.05;2.00;;;25.80;62.60;;;;;;5096266;28;20024;-62
2022/06/20 05:39:50;;;;;;;2.58;2.10;;;26.00;61.80;;;;;;5096062;28;20085;-61
2022/06/20 05:42:18;;;;;;;2.00;1.80;;;26.20;61.40;;;;;;5095570;28;20028;-62
2022/06/20 05:44:44;;;;;;;3.83;2.00;;;26.40;60.80;;;;;;5096096;28;20111;-61
2022/06/20 05:47:24;;;;;;;1.98;1.77;;;26.80;60.40;;;;;;5096040;28;20487;-61
2022/06/20 05:50:04;;;;;;;2.63;1.77;;;27.30;58.90;;;;;;5084412;28;20473;-62
2022/06/20 05:52:31;;;;;;;2.72;2.00;;;28.10;57.60;;;;;;5075831;28;20031;-62
2022/06/20 05:55:10;;;;;;;2.00;1.77;;;29.60;54.70;;;;;;5075534;28;20029;-62
2022/06/20 05:57:40;;;;;;;2.80;1.85;;;31.30;50.50;;;;;;5075620;28;20028;-62
2022/06/20 06:00:12;;;;;;;4.00;1.92;;;32.50;48.10;;;;;;5075141;28;20044;-61
2022/06/20 06:03:13;;;;;;;2.78;1.95;;;33.50;45.60;;;;;;5075657;28;20036;-61
2022/06/20 06:05:40;;;;;;;;;;;34.30;43.60;;;;;;5071029;28;20036;-61
2022/06/20 06:08:25;;;;;;;2.83;1.85;;;34.60;42.60;;;;;;5075029;28;19946;-61
2022/06/20 06:11:13;;;;;;;4.05;1.95;;;34.60;41.80;;;;;;5075199;28;20464;-62
2022/06/20 06:13:41;;;;;;;2.40;1.85;;;34.10;42.10;;;;;;5075068;28;20032;-62
2022/06/20 06:19:04;;;;;;;2.53;2.08;;;32.40;44.10;;;;;;5075025;28;20040;-62
2022/06/20 06:21:29;;;;;;;4.85;2.78;;;31.80;46.10;;;;;;5075096;28;20066;-62
2022/06/20 06:23:57;;;;;;;4.30;3.30;;;31.30;46.30;;;;;;5075191;28;20381;-62
2022/06/20 06:26:23;;;;;;;5.00;2.60;;;30.90;47.40;;;;;;5074622;28;20029;-62
2022/06/20 06:28:52;;;;;;;5.90;3.00;;;30.60;48.50;;;;;;5074647;28;20127;-62
2022/06/20 06:31:20;;;;;;;3.88;3.03;;;30.40;48.80;;;;;;5074324;28;20055;-61
2022/06/20 06:34:19;;;;;;;3.67;2.83;;;30.40;48.90;;;;;;5074480;28;20112;-62
2022/06/20 06:36:58;;;;;;;3.42;2.33;;;30.50;49.30;;;;;;5032510;28;20139;-61
2022/06/20 06:39:32;;;;;;;3.40;2.47;;;30.50;49.50;;;;;;5073322;28;20025;-61
2022/06/20 06:42:02;;;;;;;3.50;2.45;;;30.80;48.90;;;;;;5074790;28;20052;-61
2022/06/20 06:44:33;;;;;;;3.75;2.67;;;31.20;49.10;;;;;;5073840;28;20020;-61
2022/06/20 06:47:00;;;;;;;3.35;2.33;;;31.90;48.60;;;;;;5074509;28;20063;-61
2022/06/20 06:49:43;;;;;;;3.28;2.38;;;32.70;47.90;;;;;;5093845;28;20028;-62
2022/06/20 06:52:17;;;;;;;2.65;2.17;;;33.20;46.80;;;;;;5093797;28;20405;-62
2022/06/20 06:54:43;;;;;;;3.60;2.60;;;33.70;45.30;;;;;;5094527;28;20020;-61
2022/06/20 06:57:22;;;;;;;5.68;2.28;;;34.10;44.20;;;;;;5093930;28;20031;-61
2022/06/20 06:59:55;;;;;;;3.17;2.35;;;34.20;44.40;;;;;;5094626;28;20032;-61
2022/06/20 07:02:24;;;;;;;2.80;2.33;;;34.30;43.20;;;;;;5094250;28;20039;-61
2022/06/20 07:05:00;;;;;;;2.20;1.90;;;34.30;43.30;;;;;;5094563;28;20053;-61
2022/06/20 07:07:33;;;;;;;3.47;2.25;;;34.30;43.00;;;;;;5094179;28;20034;-60
2022/06/20 07:10:00;;;;;;;5.78;2.63;;;34.30;42.80;;;;;;5094534;28;20028;-62
2022/06/20 07:12:31;;;;;;;5.78;2.83;;;34.30;43.20;;;;;;5093601;28;20028;-61
2022/06/20 07:15:07;;;;;;;2.45;2.10;;;34.30;42.50;;;;;;5076233;28;20387;-61
2022/06/20 07:17:40;;;;;;;1.80;1.70;;;34.40;42.70;;;;;;5094230;28;20098;-61
2022/06/20 07:20:08;;;;;;;3.03;2.20;;;34.50;42.80;;;;;;5094280;28;20093;-61
2022/06/20 07:22:37;;;;;;;2.67;2.22;;;34.90;43.00;;;;;;5094072;28;20157;-61
2022/06/20 07:25:04;;;;;;;2.25;2.03;;;35.40;43.00;;;;;;5094118;28;20533;-61
2022/06/20 07:27:40;;;;;;;2.40;1.85;;;35.90;42.30;;;;;;5093665;28;20110;-61
2022/06/20 07:30:21;;;;;;;4.32;2.03;;;36.30;42.00;;;;;;5093954;28;20059;-61
2022/06/20 07:33:06;;;;;;;2.58;1.50;;;36.50;41.10;;;;;;5093755;28;20040;-61
2022/06/20 07:35:36;;;;;;;1.90;1.73;;;36.60;40.90;;;;;;5093158;28;20028;-60
2022/06/20 07:38:28;;;;;;;1.88;1.67;;;36.80;40.50;;;;;;5093937;28;20024;-61
2022/06/20 07:41:00;;;;;;;2.08;1.88;;;36.80;40.70;;;;;;5093815;28;20028;-61
2022/06/20 07:43:39;;;;;;;3.75;1.80;;;37.00;40.40;;;;;;5092898;28;20039;-60
2022/06/20 07:46:45;;;;;;;2.20;2.00;;;37.00;40.30;;;;;;5093255;28;20048;-61
2022/06/20 07:49:36;;;;;;;1.95;1.75;;;37.00;40.30;;;;;;5091894;28;20063;-61
2022/06/20 07:52:09;;;;;;;;;;;36.80;40.30;;;;;;5093931;28;20107;-61
2022/06/20 07:54:44;;;;;;;2.45;1.80;;;36.80;41.00;;;;;;5093453;28;19908;-62
2022/06/20 07:57:43;;;;;;;2.83;2.03;;;36.60;41.20;;;;;;5091141;28;20106;-62
2022/06/20 08:00:17;;;;;;;3.83;2.38;;;36.50;41.30;;;;;;5072713;28;20392;-62
2022/06/20 08:03:01;;;;;;;5.10;2.78;;;36.30;41.30;;;;;;5072710;28;20338;-62
2022/06/20 08:05:34;;;;;;;2.15;1.95;;;36.00;40.80;;;;;;5072431;28;20032;-62
2022/06/20 08:08:32;;;;;;;1.88;1.75;;;35.80;42.20;;;;;;5073025;28;20036;-61
2022/06/20 08:11:11;;;;;;;1.85;1.70;;;35.60;42.40;;;;;;5073040;28;20391;-61
2022/06/20 08:13:43;;;;;;;2.88;1.80;;;35.40;41.90;;;;;;5072742;28;20031;-61
2022/06/20 08:16:21;;;;;;;2.03;1.92;;;35.20;42.80;;;;;;5072882;28;20369;-62
2022/06/20 08:18:47;;;;;;;3.13;2.20;;;34.90;42.60;;;;;;5072648;28;20453;-61
2022/06/20 08:21:28;;;;;;;2.63;2.13;;;34.70;43.30;;;;;;5072238;28;20047;-61
2022/06/20 08:24:00;;;;;;;4.72;2.70;;;34.40;43.50;;;;;;5072507;28;20020;-62
2022/06/20 08:26:42;;;;;;;1.55;1.45;;;34.20;43.80;;;;;;5072291;28;20082;-65
2022/06/20 08:29:21;;;;;;;1.88;1.73;;;34.00;44.70;;;;;;5072483;28;20364;-62
2022/06/20 08:31:57;;;;;;;2.50;1.83;;;33.80;45.00;;;;;;5072340;28;20032;-61
2022/06/20 08:34:33;;;;;;;2.80;1.90;;;33.60;46.10;;;;;;5071856;28;20029;-62
2022/06/20 08:37:18;;;;;;;1.73;1.63;;;33.40;45.70;;;;;;5072746;28;20480;-62
2022/06/20 08:39:56;;;;;;;2.15;1.95;;;33.20;46.10;;;;;;5072390;28;20035;-61
2022/06/20 08:42:55;;;;;;;2.50;1.92;;;33.10;47.40;;;;;;5089552;28;20058;-62
2022/06/20 08:45:35;;;;;;;1.77;1.67;;;33.00;46.70;;;;;;5091997;28;20064;-61
2022/06/20 08:48:37;;;;;;;2.40;1.88;;;32.90;47.30;;;;;;5092421;28;20115;-62
2022/06/20 08:51:24;;;;;;;2.20;1.98;;;32.80;47.20;;;;;;5092447;28;20481;-62
2022/06/20 08:54:35;;;;;;;2.75;2.22;;;32.60;47.60;;;;;;5073819;28;20097;-61
2022/06/20 08:57:09;;;;;;;2.20;1.90;;;32.40;47.80;;;;;;5066371;28;20044;-61
2022/06/20 08:59:46;;;;;;;2.13;1.88;;;32.30;48.50;;;;;;5091789;28;20028;-62
2022/06/20 09:02:49;;;;;;;2.75;2.17;;;32.10;48.20;;;;;;5091330;28;20419;-62
2022/06/20 09:05:31;;;;;;;2.45;2.25;;;32.00;49.00;;;;;;5091975;28;20081;-62
2022/06/20 09:08:18;;;;;;;2.45;2.20;;;32.00;49.80;;;;;;5092014;28;20465;-62
2022/06/20 09:11:04;;;;;;;2.25;2.05;;;31.90;49.70;;;;;;5092235;28;20020;-62
2022/06/20 09:13:38;;;;;;;2.72;2.53;;;31.80;50.20;;;;;;5091953;28;20537;-61
2022/06/20 09:16:30;;;;;;;3.00;2.30;;;31.70;50.20;;;;;;5092220;28;20048;-61
2022/06/20 09:19:09;;;;;;;2.15;1.95;;;31.60;50.90;;;;;;5092160;28;20132;-60
2022/06/20 09:21:49;;;;;;;3.05;2.60;;;31.50;51.10;;;;;;5091752;28;20020;-62
2022/06/20 09:24:46;;;;;;;3.20;2.80;;;31.40;51.40;;;;;;5091861;28;20499;-62
2022/06/20 09:27:56;;;;;;;10.07;2.88;;;31.30;51.80;;;;;;5078208;28;20055;-62
2022/06/20 09:30:42;;;;;;;2.50;2.30;;;31.10;51.70;;;;;;5078538;28;20333;-61
2022/06/20 09:33:34;;;;;;;3.97;2.42;;;31.00;52.80;;;;;;5091599;28;20043;-61
2022/06/20 09:36:11;;;;;;;2.67;2.47;;;30.90;53.40;;;;;;5090883;28;20047;-62
2022/06/20 09:38:56;;;;;;;2.38;2.17;;;30.90;53.90;;;;;;5091627;28;20051;-61
2022/06/20 09:41:43;;;;;;;5.65;2.38;;;30.80;53.50;;;;;;5091406;28;20031;-61
2022/06/20 09:44:30;;;;;;;2.97;2.45;;;30.90;54.10;;;;;;5091824;28;20028;-61
2022/06/20 09:47:31;;;;;;;2.78;2.47;;;30.80;53.70;;;;;;5091968;28;20141;-62
2022/06/20 09:50:21;;;;;;;1.92;1.80;;;30.80;54.00;;;;;;4989706;28;20141;-62
2022/06/20 09:52:58;;;;;;;2.47;2.20;;;30.80;54.20;;;;;;5073087;28;20045;-62
2022/06/20 09:55:32;;;;;;;5.38;2.72;;;30.80;54.10;;;;;;5070927;28;20401;-62
2022/06/20 09:58:07;;;;;;;3.15;2.53;;;30.90;54.10;;;;;;5071683;28;20029;-62
2022/06/20 10:00:45;;;;;;;3.05;2.45;;;30.90;54.10;;;;;;5071131;28;20441;-62
2022/06/20 10:03:37;;;;;;;3.95;2.90;;;30.90;54.60;;;;;;5071281;28;20469;-62
2022/06/20 10:06:23;;;;;;;3.85;2.75;;;31.00;54.70;;;;;;5071566;28;20055;-62
2022/06/20 10:09:10;;;;;;;2.50;2.30;;;30.90;54.70;;;;;;5071761;28;20085;-61
2022/06/20 10:11:50;;;;;;;3.65;2.80;;;31.00;54.70;;;;;;5071416;28;20060;-62
2022/06/20 10:14:36;;;;;;;3.05;2.75;;;31.00;54.90;;;;;;5074121;28;20072;-61
2022/06/20 10:17:41;;;;;;;3.15;2.65;;;31.00;54.60;;;;;;5074822;28;20048;-62
2022/06/20 10:20:25;;;;;;;2.85;2.50;;;31.00;53.90;;;;;;5074311;28;20135;-61
2022/06/20 10:23:02;;;;;;;3.22;2.53;;;31.00;54.40;;;;;;5074686;28;20471;-62
2022/06/20 10:25:48;;;;;;;3.42;2.53;;;31.00;55.30;;;;;;5074578;28;20349;-62
2022/06/20 10:28:22;;;;;;;2.90;2.55;;;31.00;56.70;;;;;;5023812;28;20032;-61
2022/06/20 10:30:57;;;;;;;3.72;2.53;;;31.00;55.40;;;;;;5074797;28;20033;-61
2022/06/20 10:33:35;;;;;;;5.28;4.03;;;31.00;55.80;;;;;;5073874;28;20179;-62
2022/06/20 10:36:27;;;;;;;8.98;3.45;;;30.90;56.20;;;;;;5074701;28;20035;-62
2022/06/20 10:39:08;;;;;;;3.83;3.42;;;30.90;56.60;;;;;;5074592;28;20016;-61
2022/06/20 10:41:51;;;;;;;4.28;3.55;;;30.80;57.60;;;;;;5084021;28;20035;-61
2022/06/20 10:44:25;;;;;;;3.90;3.03;;;30.80;57.50;;;;;;5094503;28;20024;-61
2022/06/20 10:47:19;;;;;;;10.68;4.18;;;30.80;57.70;;;;;;5094360;28;20055;-61
2022/06/20 10:50:26;;;;;;;7.28;3.85;;;30.70;57.60;;;;;;5094269;28;20066;-62
2022/06/20 10:53:03;;;;;;;8.32;4.07;;;30.70;58.20;;;;;;5059892;28;20446;-62
2022/06/20 10:55:41;;;;;;;5.28;4.18;;;30.60;58.90;;;;;;5094223;28;20024;-62
2022/06/20 10:58:10;;;;;;;5.38;4.25;;;30.50;59.20;;;;;;5094508;28;20530;-62
2022/06/20 11:00:44;;;;;;;8.32;4.82;;;30.50;59.30;;;;;;5094094;28;20077;-62
2022/06/20 11:03:19;;;;;;;13.10;5.07;;;30.50;60.20;;;;;;5094550;28;20163;-61
2022/06/20 11:05:53;;;;;;;5.95;4.57;;;30.40;60.20;;;;;;5094010;28;20148;-61
2022/06/20 11:08:39;;;;;;;7.32;4.63;;;30.30;61.60;;;;;;5094482;28;20111;-62
2022/06/20 11:11:23;;;;;;;7.40;4.80;;;30.30;61.40;;;;;;5094366;28;20016;-62
2022/06/20 11:14:00;;;;;;;9.55;4.30;;;30.20;62.00;;;;;;5094086;28;20028;-62
2022/06/20 11:16:51;;;;;;;10.88;5.43;;;30.20;61.50;;;;;;5093824;28;20039;-61
2022/06/20 11:19:57;;;;;;;6.50;4.30;;;30.20;61.50;;;;;;5055000;28;20115;-61
2022/06/20 11:22:38;;;;;;;6.88;4.07;;;30.20;62.00;;;;;;5093967;28;20024;-61
2022/06/20 11:25:25;;;;;;;7.43;4.47;;;30.20;62.70;;;;;;5093565;28;20464;-61
2022/06/20 11:28:08;;;;;;;7.43;4.50;;;30.20;63.00;;;;;;5094030;28;20110;-61
2022/06/20 11:31:03;;;;;;;4.90;3.95;;;30.20;62.00;;;;;;5093502;28;20046;-61
2022/06/20 11:34:02;;;;;;;10.55;4.95;;;30.20;61.50;;;;;;5093420;28;20039;-61
2022/06/20 11:36:57;;;;;;;7.35;4.47;;;30.10;60.90;;;;;;5093522;28;20373;-61
2022/06/20 11:39:41;;;;;;;7.75;4.20;;;29.90;61.00;;;;;;5093651;28;20036;-61
2022/06/20 11:42:10;;;;;;;7.88;3.80;;;29.90;60.70;;;;;;5093683;28;20024;-61
2022/06/20 11:45:03;;;;;;;6.38;4.00;;;29.80;61.40;;;;;;5093209;28;20469;-61
2022/06/20 11:47:52;;;;;;;7.20;3.88;;;29.80;60.40;;;;;;5093455;28;20051;-61
2022/06/20 11:50:41;;;;;;;7.57;3.92;;;29.80;61.60;;;;;;5093422;28;20028;-61
2022/06/20 11:53:34;;;;;;;5.75;3.50;;;29.70;61.30;;;;;;5091911;28;20421;-61
2022/06/20 11:56:10;;;;;;;5.50;4.18;;;29.60;61.00;;;;;;5093500;28;20024;-61
2022/06/20 11:58:48;;;;;;;5.10;3.60;;;29.50;62.10;;;;;;5092688;28;20024;-61
2022/06/20 12:01:21;;;;;;;5.63;3.65;;;29.50;62.60;;;;;;5075114;28;20028;-61
2022/06/20 12:03:50;;;;;;;5.80;3.47;;;29.40;62.00;;;;;;5092887;28;20032;-61
2022/06/20 12:06:30;;;;;;;5.32;3.75;;;29.40;62.60;;;;;;5092958;28;20024;-62
2022/06/20 12:08:58;;;;;;;3.63;3.30;;;29.40;62.70;;;;;;5092943;28;20473;-62
2022/06/20 12:11:30;;;;;;;5.20;3.40;;;29.30;63.00;;;;;;5093247;28;20601;-62
2022/06/20 12:14:09;;;;;;;6.38;3.10;;;29.30;63.20;;;;;;5093111;28;20067;-61
2022/06/20 12:16:47;;;;;;;5.53;3.10;;;29.30;61.40;;;;;;5093112;28;20021;-61
2022/06/20 12:25:17;;;;;;;4.10;3.15;;;29.20;61.50;;;;;;5092787;28;20035;-61
2022/06/20 12:27:46;;;;;;;4.40;2.80;;;29.10;61.80;;;;;;5092574;28;20082;-61
2022/06/20 12:30:14;;;;;;;3.35;2.80;;;29.00;62.60;;;;;;5092837;28;20024;-62
2022/06/20 12:32:42;;;;;;;8.80;3.20;;;28.90;63.20;;;;;;5092007;28;20494;-62
2022/06/20 12:35:30;;;;;;;5.22;3.40;;;28.80;62.60;;;;;;5092545;28;20024;-61
2022/06/20 12:38:04;;;;;;;4.22;2.78;;;28.80;63.30;;;;;;5092092;28;20025;-61
2022/06/20 12:40:36;;;;;;;6.07;3.65;;;28.80;63.50;;;;;;5092339;28;20024;-61
2022/06/20 12:43:23;;;;;;;6.80;3.97;;;28.80;64.90;;;;;;5092833;28;20043;-61
2022/06/20 12:46:07;;;;;;;4.15;3.38;;;28.70;65.60;;;;;;5092065;28;20070;-61
2022/06/20 12:48:48;;;;;;;5.07;4.43;;;28.70;65.80;;;;;;5091892;28;20074;-61
2022/06/20 12:51:28;;;;;;;4.10;3.33;;;28.70;67.10;;;;;;5091995;28;20024;-61
2022/06/20 12:54:12;;;;;;;7.82;3.80;;;28.70;65.90;;;;;;5091759;28;20133;-61
2022/06/20 12:57:08;;;;;;;6.72;3.17;;;28.70;65.80;;;;;;5091891;28;20333;-61
2022/06/20 12:59:43;;;;;;;8.27;3.47;;;28.60;64.60;;;;;;5092085;28;20081;-61
2022/06/20 13:02:19;;;;;;;5.55;4.13;;;28.60;64.60;;;;;;5092076;28;20469;-61
2022/06/20 13:05:03;;;;;;;3.88;3.05;;;28.60;65.80;;;;;;5091965;28;20020;-61
2022/06/20 13:07:50;;;;;;;5.00;3.70;;;28.60;66.10;;;;;;5092627;28;20545;-62
2022/06/20 13:10:26;;;;;;;4.22;3.17;;;28.60;65.30;;;;;;5092306;28;20118;-62
2022/06/20 13:13:22;;;;;;;8.68;3.65;;;28.60;66.90;;;;;;5091857;28;20059;-62
2022/06/20 13:16:09;;;;;;;6.13;3.15;;;28.60;66.40;;;;;;5091892;28;20107;-62
2022/06/20 13:18:38;;;;;;;5.90;3.38;;;28.60;64.60;;;;;;5091975;28;20051;-62
2022/06/20 13:21:16;;;;;;;5.10;3.00;;;28.60;64.80;;;;;;5092337;28;20101;-62
2022/06/20 13:24:10;;;;;;;3.75;3.22;;;28.60;63.00;;;;;;5091792;28;20103;-62
2022/06/20 13:26:41;;;;;;;3.28;2.85;;;28.60;62.10;;;;;;5073491;28;20189;-62
2022/06/20 13:29:36;;;;;;;5.90;3.08;;;28.60;62.00;;;;;;5091946;28;20024;-62
2022/06/20 13:32:20;;;;;;;3.05;2.47;;;28.60;61.90;;;;;;5092274;28;20020;-62
2022/06/20 13:35:15;;;;;;;6.90;3.50;;;28.70;61.90;;;;;;5091691;28;20391;-62
2022/06/20 13:37:56;;;;;;;5.50;2.78;;;28.70;63.30;;;;;;5091790;28;20093;-62
2022/06/20 13:40:27;;;;;;;3.92;2.85;;;28.70;61.60;;;;;;5092143;28;20076;-62
2022/06/20 13:43:21;;;;;;;5.15;3.47;;;28.70;61.30;;;;;;5091655;28;20043;-62
2022/06/20 13:45:58;;;;;;;3.47;3.10;;;28.70;61.70;;;;;;5091371;28;20496;-62
2022/06/20 13:48:44;;;;;;;3.60;3.15;;;28.70;62.60;;;;;;5094060;28;20119;-62
2022/06/20 13:51:21;;;;;;;4.05;2.90;;;28.70;62.00;;;;;;5096021;28;20483;-62
2022/06/20 13:54:05;;;;;;;8.30;3.42;;;28.80;62.50;;;;;;5095236;28;20102;-62
2022/06/20 13:56:36;;;;;;;4.68;3.25;;;28.80;62.30;;;;;;5096033;28;20016;-62